createdAt,value
2022-09-20T00:00:42.999Z,26.83
2022-09-20T00:03:00.702Z,25.48
2022-09-20T00:05:02.285Z,24.92
2022-09-20T00:07:04.164Z,26.60
2022-09-20T00:09:06.539Z,25.70
2022-09-20T00:11:10.216Z,25.42
2022-09-20T00:13:13.046Z,25.67
2022-09-20T00:15:14.651Z,26.00
2022-09-20T00:17:16.162Z,25.40
2022-09-20T00:19:19.731Z,26.05
2022-09-20T00:21:24.545Z,24.50
2022-09-20T00:23:26.130Z,24.10
2022-09-20T00:25:27.817Z,24.23
2022-09-20T00:27:29.327Z,25.92
2022-09-20T00:29:30.891Z,25.30
2022-09-20T00:31:32.717Z,25.92
2022-09-20T00:33:52.663Z,25.38
2022-09-20T00:35:54.174Z,25.25
2022-09-20T00:37:55.930Z,25.15
2022-09-20T00:39:57.523Z,24.33
2022-09-20T00:41:59.108Z,25.35
2022-09-20T00:44:01.823Z,26.08
2022-09-20T00:46:04.126Z,26.45
2022-09-20T00:48:27.735Z,24.90
2022-09-20T00:50:29.936Z,23.75
2022-09-20T00:52:31.773Z,25.10
2022-09-20T00:54:33.812Z,24.48
2022-09-20T00:56:37.782Z,25.65
2022-09-20T00:58:45.212Z,25.17
2022-09-20T01:00:48.911Z,23.90
2022-09-20T01:02:53.643Z,25.42
2022-09-20T01:04:57.593Z,25.65
2022-09-20T01:07:02.020Z,25.83
2022-09-20T01:09:05.467Z,24.83
2022-09-20T01:11:07.141Z,24.85
2022-09-20T01:13:08.787Z,24.27
2022-09-20T01:15:11.125Z,24.35
2022-09-20T01:17:13.754Z,24.30
2022-09-20T01:19:38.371Z,23.75
2022-09-20T01:21:40.233Z,23.27
2022-09-20T01:24:05.743Z,26.40
2022-09-20T01:26:13.905Z,23.83
2022-09-20T01:28:16.378Z,24.33
2022-09-20T01:30:19.550Z,24.92
2022-09-20T01:32:23.922Z,23.83
2022-09-20T01:34:31.147Z,24.02
2022-09-20T01:36:43.494Z,26.77
2022-09-20T01:39:00.007Z,24.08
2022-09-20T01:41:02.605Z,23.90
2022-09-20T01:43:04.089Z,23.30
2022-09-20T01:45:20.753Z,24.00
2022-09-20T01:47:37.810Z,24.98
2022-09-20T01:49:56.538Z,24.40
2022-09-20T01:52:24.950Z,24.55
2022-09-20T01:54:29.680Z,24.38
2022-09-20T01:56:40.897Z,24.58
2022-09-20T01:59:12.786Z,25.35
2022-09-20T02:01:22.274Z,24.05
2022-09-20T02:03:39.405Z,24.60
2022-09-20T02:05:43.649Z,23.85
2022-09-20T02:07:56.413Z,24.35
2022-09-20T02:09:57.969Z,23.98
2022-09-20T02:12:14.122Z,25.13
2022-09-20T02:14:29.772Z,24.38
2022-09-20T02:16:40.727Z,24.73
2022-09-20T02:19:01.269Z,24.17
2022-09-20T02:21:15.235Z,24.88
2022-09-20T02:23:40.498Z,24.60
2022-09-20T02:25:45.030Z,23.63
2022-09-20T02:28:09.951Z,23.85
2022-09-20T02:30:30.539Z,23.92
2022-09-20T02:32:50.922Z,24.15
2022-09-20T02:35:16.040Z,23.10
2022-09-20T02:37:20.770Z,23.15
2022-09-20T02:39:27.508Z,23.77
2022-09-20T02:41:38.295Z,24.13
2022-09-20T02:43:56.085Z,23.02
2022-09-20T02:46:09.798Z,23.85
2022-09-20T02:48:14.545Z,22.00
2022-09-20T02:50:22.192Z,22.20
2022-09-20T02:52:40.742Z,22.75
2022-09-20T02:54:57.699Z,22.75
2022-09-20T02:57:21.035Z,23.02
2022-09-20T02:59:25.314Z,22.33
2022-09-20T03:01:51.016Z,22.63
2022-09-20T03:04:07.782Z,21.88
2022-09-20T03:06:27.885Z,22.17
2022-09-20T03:08:48.314Z,21.45
2022-09-20T03:10:58.127Z,21.77
2022-09-20T03:13:22.656Z,20.98
2022-09-20T03:15:31.555Z,21.45
2022-09-20T03:17:56.123Z,20.77
2022-09-20T03:20:03.551Z,20.60
2022-09-20T03:22:12.030Z,20.95
2022-09-20T03:24:13.592Z,19.45
2022-09-20T03:26:35.391Z,21.00
2022-09-20T03:28:37.099Z,20.20
2022-09-20T03:30:41.734Z,20.27
2022-09-20T03:32:49.015Z,20.52
2022-09-20T03:34:53.919Z,20.77
2022-09-20T03:36:58.176Z,20.73
2022-09-20T03:39:15.834Z,20.25
2022-09-20T03:41:56.185Z,19.95
2022-09-20T03:43:57.815Z,19.67
2022-09-20T03:46:09.328Z,20.33
2022-09-20T03:48:20.148Z,19.23
2022-09-20T03:50:33.654Z,19.42
2022-09-20T03:52:37.954Z,18.85
2022-09-20T03:54:45.818Z,18.63
2022-09-20T03:57:06.014Z,18.02
2022-09-20T03:59:17.817Z,17.42
2022-09-20T04:01:38.485Z,18.70
2022-09-20T04:03:40.119Z,18.17
2022-09-20T04:05:47.036Z,17.80
2022-09-20T04:08:07.614Z,18.35
2022-09-20T04:10:18.079Z,16.88
2022-09-20T04:12:26.895Z,17.08
2022-09-20T04:14:40.241Z,16.45
2022-09-20T04:16:41.845Z,16.00
2022-09-20T04:18:43.387Z,16.40
2022-09-20T04:20:48.275Z,16.42
2022-09-20T04:22:52.048Z,16.98
2022-09-20T04:24:56.614Z,16.23
2022-09-20T04:27:27.788Z,16.23
2022-09-20T04:29:38.091Z,15.75
2022-09-20T04:31:43.495Z,15.68
2022-09-20T04:33:47.491Z,15.88
2022-09-20T04:36:21.998Z,15.07
2022-09-20T04:38:23.720Z,15.40
2022-09-20T04:40:29.667Z,14.20
2022-09-20T04:42:49.945Z,14.60
2022-09-20T04:45:23.834Z,15.13
2022-09-20T04:47:43.869Z,13.65
2022-09-20T04:50:16.539Z,14.93
2022-09-20T04:52:47.532Z,13.90
2022-09-20T04:55:01.518Z,14.25
2022-09-20T04:57:25.988Z,14.32
2022-09-20T04:59:46.722Z,13.45
2022-09-20T05:01:51.539Z,13.00
2022-09-20T05:03:53.321Z,13.75
2022-09-20T05:06:14.356Z,13.48
2022-09-20T05:08:34.625Z,13.40
2022-09-20T05:10:39.990Z,12.40
2022-09-20T05:13:05.264Z,12.57
2022-09-20T05:15:09.715Z,13.05
2022-09-20T05:17:14.861Z,12.10
2022-09-20T05:19:22.312Z,13.00
2022-09-20T05:21:27.330Z,12.75
2022-09-20T05:23:38.299Z,13.48
2022-09-20T05:25:42.639Z,12.55
2022-09-20T05:27:50.598Z,12.65
2022-09-20T05:30:05.336Z,12.43
2022-09-20T05:32:18.334Z,12.60
2022-09-20T05:34:27.066Z,12.00
2022-09-20T05:36:39.604Z,12.07
2022-09-20T05:38:51.793Z,12.18
2022-09-20T05:41:01.390Z,11.77
2022-09-20T05:43:11.509Z,11.35
2022-09-20T05:45:31.599Z,11.00
2022-09-20T05:47:39.610Z,11.57
2022-09-20T05:49:49.982Z,11.38
2022-09-20T05:52:10.239Z,64.47
2022-09-20T05:54:25.169Z,11.38
2022-09-20T05:56:33.809Z,10.85
2022-09-20T05:58:44.086Z,11.90
2022-09-20T06:00:48.845Z,11.27
2022-09-20T06:02:51.121Z,11.85
2022-09-20T06:04:58.852Z,10.90
2022-09-20T06:07:09.197Z,11.45
2022-09-20T06:09:29.227Z,11.68
2022-09-20T06:11:46.906Z,12.05
2022-09-20T06:14:03.609Z,11.98
2022-09-20T06:16:06.635Z,11.23
2022-09-20T06:20:09.842Z,12.20
2022-09-20T06:22:34.490Z,11.45
2022-09-20T06:24:39.251Z,11.60
2022-09-20T06:26:41.733Z,12.40
2022-09-20T06:28:46.983Z,11.63
2022-09-20T06:30:48.672Z,11.55
2022-09-20T06:33:13.875Z,12.65
2022-09-20T06:35:15.389Z,11.93
2022-09-20T06:37:40.161Z,11.68
2022-09-20T06:40:00.473Z,11.15
2022-09-20T06:42:02.137Z,12.02
2022-09-20T06:44:05.405Z,16.95
2022-09-20T06:46:08.491Z,12.02
2022-09-20T06:48:11.658Z,12.63
2022-09-20T06:50:15.920Z,12.65
2022-09-20T06:52:18.701Z,12.13
2022-09-20T06:54:21.155Z,13.13
2022-09-20T06:56:27.772Z,17.73
2022-09-20T06:58:29.556Z,13.70
2022-09-20T07:00:31.088Z,12.13
2022-09-20T07:02:32.734Z,12.93
2022-09-20T07:04:35.003Z,13.60
2022-09-20T07:06:36.691Z,12.15
2022-09-20T07:08:38.347Z,13.25
2022-09-20T07:10:40.126Z,12.55
2022-09-20T07:12:41.866Z,13.23
2022-09-20T07:14:44.327Z,13.38
2022-09-20T07:16:46.328Z,13.77
2022-09-20T07:18:48.579Z,13.30
2022-09-20T07:20:50.301Z,12.85
2022-09-20T07:22:53.720Z,12.77
2022-09-20T07:24:55.318Z,13.27
2022-09-20T07:26:57.938Z,13.27
2022-09-20T07:28:59.903Z,12.90
2022-09-20T07:31:01.714Z,18.95
2022-09-20T07:33:03.305Z,15.00
2022-09-20T07:35:05.359Z,13.45
2022-09-20T07:37:06.959Z,12.80
2022-09-20T07:39:08.562Z,12.48
2022-09-20T07:41:10.657Z,12.90
2022-09-20T07:43:12.955Z,13.00
2022-09-20T07:45:14.574Z,13.25
2022-09-20T07:47:16.407Z,12.65
2022-09-20T07:49:18.297Z,12.60
2022-09-20T07:51:20.083Z,12.10
2022-09-20T07:53:22.138Z,12.88
2022-09-20T07:55:23.959Z,12.70
2022-09-20T07:57:25.754Z,12.85
2022-09-20T07:59:27.651Z,12.97
2022-09-20T08:01:29.548Z,12.60
2022-09-20T08:03:32.052Z,12.23
2022-09-20T08:05:35.709Z,12.20
2022-09-20T08:07:38.530Z,12.63
2022-09-20T08:09:40.183Z,12.40
2022-09-20T08:11:43.472Z,12.38
2022-09-20T08:16:10.348Z,12.95
2022-09-20T08:18:13.420Z,12.38
2022-09-20T08:20:15.505Z,18.88
2022-09-20T08:22:17.147Z,11.97
2022-09-20T08:24:19.000Z,11.82
2022-09-20T08:26:23.516Z,12.73
2022-09-20T08:28:25.304Z,12.73
2022-09-20T08:30:27.748Z,12.70
2022-09-20T08:32:30.211Z,12.80
2022-09-20T08:34:31.878Z,12.80
2022-09-20T08:36:36.712Z,12.85
2022-09-20T08:41:03.575Z,13.48
2022-09-20T08:43:06.218Z,12.48
2022-09-20T08:45:35.581Z,12.32
2022-09-20T08:47:43.110Z,12.80
2022-09-20T08:49:46.436Z,12.18
2022-09-20T08:51:50.437Z,12.38
2022-09-20T08:53:53.865Z,11.10
2022-09-20T08:55:59.210Z,11.57
2022-09-20T08:58:07.562Z,12.48
2022-09-20T09:00:17.496Z,12.02
2022-09-20T09:02:21.058Z,12.25
2022-09-20T09:04:24.118Z,11.35
2022-09-20T09:08:37.770Z,11.18
2022-09-20T09:10:43.123Z,11.65
2022-09-20T09:12:48.602Z,13.02
2022-09-20T09:14:54.763Z,13.13
2022-09-20T09:16:56.401Z,12.65
2022-09-20T09:18:58.416Z,12.57
2022-09-20T09:21:05.258Z,12.07
2022-09-20T09:23:09.082Z,12.77
2022-09-20T09:25:19.929Z,12.98
2022-09-20T09:27:21.719Z,13.43
2022-09-20T09:29:23.585Z,13.02
2022-09-20T09:31:26.147Z,13.52
2022-09-20T09:33:29.418Z,14.35
2022-09-20T09:37:33.574Z,13.85
2022-09-20T09:39:38.504Z,15.03
2022-09-20T09:41:41.079Z,15.23
2022-09-20T09:43:43.651Z,15.43
2022-09-20T09:45:45.546Z,16.08
2022-09-20T09:47:47.523Z,15.65
2022-09-20T09:50:01.849Z,15.27
2022-09-20T09:52:13.079Z,14.82
2022-09-20T09:54:18.102Z,15.15
2022-09-20T09:56:22.919Z,14.13
2022-09-20T09:58:30.242Z,14.82
2022-09-20T10:00:35.689Z,14.85
2022-09-20T10:02:55.931Z,14.40
2022-09-20T10:05:06.018Z,14.80
2022-09-20T10:07:16.678Z,15.55
2022-09-20T10:09:24.458Z,14.82
2022-09-20T10:11:29.234Z,13.15
2022-09-20T10:13:50.147Z,12.90
2022-09-20T10:15:55.988Z,13.23
2022-09-20T10:18:09.988Z,12.18
2022-09-20T10:20:20.372Z,11.48
2022-09-20T10:22:28.680Z,12.20
2022-09-20T10:24:36.382Z,11.95
2022-09-20T10:27:01.914Z,10.90
2022-09-20T10:29:15.659Z,10.02
2022-09-20T10:31:42.163Z,10.23
2022-09-20T10:33:43.742Z,10.30
2022-09-20T10:36:00.019Z,9.20
2022-09-20T10:38:19.906Z,8.98
2022-09-20T10:40:21.873Z,9.55
2022-09-20T10:42:51.667Z,9.70
2022-09-20T10:45:09.043Z,11.07
2022-09-20T10:47:20.461Z,10.23
2022-09-20T10:49:28.097Z,10.80
2022-09-20T10:51:39.343Z,10.95
2022-09-20T10:53:47.485Z,10.65
2022-09-20T10:55:52.313Z,8.35
2022-09-20T10:57:55.608Z,8.82
2022-09-20T11:00:16.274Z,9.32
2022-09-20T11:02:18.054Z,9.68
2022-09-20T11:04:29.237Z,8.65
2022-09-20T11:06:50.601Z,7.88
2022-09-20T11:08:55.801Z,12.55
2022-09-20T11:11:19.788Z,8.30
2022-09-20T11:15:34.957Z,9.25
2022-09-20T11:17:40.351Z,9.52
2022-09-20T11:19:56.351Z,8.88
2022-09-20T11:22:04.013Z,8.25
2022-09-20T11:24:24.315Z,9.23
2022-09-20T11:26:46.278Z,9.85
2022-09-20T11:28:54.042Z,8.73
2022-09-20T11:31:14.539Z,8.18
2022-09-20T11:33:24.642Z,8.15
2022-09-20T11:35:32.383Z,8.32
2022-09-20T11:37:36.204Z,8.15
2022-09-20T11:39:44.029Z,8.18
2022-09-20T11:41:47.199Z,8.10
2022-09-20T11:43:49.409Z,8.63
2022-09-20T11:45:53.115Z,7.83
2022-09-20T11:48:08.832Z,8.45
2022-09-20T11:50:33.058Z,8.68
2022-09-20T11:52:40.463Z,7.05
2022-09-20T11:54:42.024Z,7.28
2022-09-20T11:56:53.830Z,6.78
2022-09-20T11:58:57.091Z,5.90
2022-09-20T12:00:59.078Z,6.35
2022-09-20T12:03:03.777Z,5.93
2022-09-20T12:05:06.383Z,5.70
2022-09-20T12:07:18.117Z,6.03
2022-09-20T12:09:32.519Z,5.78
2022-09-20T12:11:36.182Z,6.05
2022-09-20T12:13:39.002Z,6.68
2022-09-20T12:15:41.653Z,6.68
2022-09-20T12:17:46.708Z,6.53
2022-09-20T12:19:53.240Z,6.85
2022-09-20T12:22:04.622Z,6.90
2022-09-20T12:24:16.956Z,5.97
2022-09-20T12:26:18.561Z,6.38
2022-09-20T12:28:32.992Z,5.90
2022-09-20T12:30:37.188Z,6.25
2022-09-20T12:32:38.707Z,5.70
2022-09-20T12:34:40.510Z,5.72
2022-09-20T12:36:43.466Z,5.60
2022-09-20T12:41:04.035Z,5.60
2022-09-20T12:43:05.632Z,6.07
2022-09-20T12:45:16.365Z,5.13
2022-09-20T12:47:18.157Z,4.90
2022-09-20T12:49:39.654Z,5.22
2022-09-20T12:52:00.303Z,4.80
2022-09-20T12:54:11.811Z,4.63
2022-09-20T12:56:18.403Z,5.47
2022-09-20T12:58:21.016Z,4.68
2022-09-20T13:00:31.198Z,5.13
2022-09-20T13:02:43.356Z,4.90
2022-09-20T13:04:55.576Z,4.80
2022-09-20T13:07:24.157Z,4.88
2022-09-20T13:09:26.314Z,4.75
2022-09-20T13:11:46.589Z,4.50
2022-09-20T13:13:55.250Z,4.90
2022-09-20T13:15:58.217Z,4.68
2022-09-20T13:20:02.829Z,4.57
2022-09-20T13:22:14.273Z,3.80
2022-09-20T13:24:18.021Z,4.22
2022-09-20T13:26:22.915Z,4.53
2022-09-20T13:28:28.750Z,5.38
2022-09-20T13:30:33.634Z,5.57
2022-09-20T13:32:36.935Z,5.35
2022-09-20T13:34:38.429Z,5.75
2022-09-20T13:36:40.090Z,5.90
2022-09-20T13:38:41.941Z,5.70
2022-09-20T13:40:50.055Z,5.05
2022-09-20T13:42:52.568Z,5.40
2022-09-20T13:44:54.315Z,4.45
2022-09-20T13:46:56.115Z,4.80
2022-09-20T13:49:06.994Z,5.00
2022-09-20T13:51:23.373Z,4.88
2022-09-20T13:53:40.660Z,5.32
2022-09-20T13:55:43.930Z,4.53
2022-09-20T13:57:48.178Z,4.80
2022-09-20T13:59:50.735Z,5.30
2022-09-20T14:01:53.747Z,7.78
2022-09-20T14:03:59.455Z,6.40
2022-09-20T14:06:02.290Z,5.85
2022-09-20T14:08:04.922Z,6.13
2022-09-20T14:10:29.047Z,5.93
2022-09-20T14:12:31.109Z,5.55
2022-09-20T14:14:34.250Z,5.72
2022-09-20T14:16:41.662Z,5.40
2022-09-20T14:18:43.759Z,5.22
2022-09-20T14:20:46.061Z,6.70
2022-09-20T14:22:47.896Z,5.65
2022-09-20T14:25:04.225Z,6.38
2022-09-20T14:27:16.514Z,5.70
2022-09-20T14:29:33.599Z,6.43
2022-09-20T14:31:36.572Z,5.68
2022-09-20T14:35:46.182Z,5.57
2022-09-20T14:37:53.760Z,5.70
2022-09-20T14:40:07.233Z,5.45
2022-09-20T14:42:29.637Z,4.97
2022-09-20T14:44:32.889Z,5.70
2022-09-20T14:46:35.905Z,6.35
2022-09-20T14:48:41.300Z,6.03
2022-09-20T14:50:44.474Z,6.22
2022-09-20T14:52:46.734Z,5.15
2022-09-20T14:54:58.438Z,5.15
2022-09-20T14:57:01.626Z,4.53
2022-09-20T14:59:05.484Z,3.67
2022-09-20T15:01:18.758Z,2.60
2022-09-20T15:03:25.296Z,3.03
2022-09-20T15:05:28.052Z,1.90
2022-09-20T15:07:30.388Z,1.85
2022-09-20T15:09:32.397Z,1.90
2022-09-20T15:11:34.075Z,1.60
2022-09-20T15:13:36.148Z,1.40
2022-09-20T15:15:38.047Z,9.32
2022-09-20T15:17:39.800Z,1.88
2022-09-20T15:19:41.671Z,1.73
2022-09-20T15:21:43.292Z,1.48
2022-09-20T15:23:45.119Z,1.40
2022-09-20T15:25:50.349Z,1.30
2022-09-20T15:27:51.955Z,1.40
2022-09-20T15:29:53.642Z,1.50
2022-09-20T15:31:55.544Z,1.83
2022-09-20T15:33:57.088Z,1.85
2022-09-20T15:35:58.805Z,1.75
2022-09-20T15:38:00.787Z,1.73
2022-09-20T15:40:03.100Z,1.50
2022-09-20T15:42:05.486Z,1.67
2022-09-20T15:44:08.078Z,1.65
2022-09-20T15:46:19.856Z,1.92
2022-09-20T15:48:22.862Z,1.90
2022-09-20T15:50:25.800Z,1.95
2022-09-20T15:52:34.338Z,2.17
2022-09-20T15:54:35.883Z,1.67
2022-09-20T15:56:40.281Z,1.60
2022-09-20T15:58:45.541Z,18.88
2022-09-20T16:00:49.219Z,6.38
2022-09-20T16:02:51.308Z,1.83
2022-09-20T16:04:55.725Z,1.70
2022-09-20T16:06:57.316Z,2.28
2022-09-20T16:08:59.969Z,1.75
2022-09-20T16:11:02.109Z,2.00
2022-09-20T16:13:03.833Z,2.60
2022-09-20T16:15:06.112Z,2.08
2022-09-20T16:17:07.641Z,2.13
2022-09-20T16:19:20.912Z,2.38
2022-09-20T16:21:23.827Z,2.40
2022-09-20T16:23:26.095Z,2.17
2022-09-20T16:25:27.889Z,2.65
2022-09-20T16:27:31.728Z,2.80
2022-09-20T16:29:33.628Z,2.67
2022-09-20T16:31:41.936Z,2.80
2022-09-20T16:33:44.113Z,3.28
2022-09-20T16:35:45.855Z,3.15
2022-09-20T16:37:48.375Z,2.85
2022-09-20T16:39:50.186Z,3.00
2022-09-20T16:41:52.927Z,3.30
2022-09-20T16:43:54.846Z,3.95
2022-09-20T16:46:00.660Z,3.65
2022-09-20T16:48:08.466Z,3.08
2022-09-20T16:50:11.882Z,2.78
2022-09-20T16:52:14.200Z,3.45
2022-09-20T16:54:16.671Z,3.50
2022-09-20T16:56:20.131Z,3.13
2022-09-20T16:58:30.288Z,3.20
2022-09-20T17:00:33.674Z,4.00
2022-09-20T17:02:36.116Z,3.95
2022-09-20T17:04:38.356Z,4.95
2022-09-20T17:06:41.103Z,5.68
2022-09-20T17:08:44.771Z,4.88
2022-09-20T17:10:47.056Z,5.10
2022-09-20T17:12:52.389Z,5.03
2022-09-20T17:14:53.938Z,4.90
2022-09-20T17:16:56.633Z,4.97
2022-09-20T17:19:01.906Z,4.63
2022-09-20T17:21:05.270Z,4.22
2022-09-20T17:23:09.212Z,3.53
2022-09-20T17:25:11.023Z,3.50
2022-09-20T17:27:12.838Z,3.78
2022-09-20T17:29:16.237Z,3.70
2022-09-20T17:31:19.655Z,4.03
2022-09-20T17:33:21.340Z,3.65
2022-09-20T17:35:23.398Z,12.90
2022-09-20T17:37:25.279Z,5.35
2022-09-20T17:39:26.827Z,5.50
2022-09-20T17:41:29.161Z,4.85
2022-09-20T17:43:31.439Z,4.60
2022-09-20T17:45:33.294Z,5.03
2022-09-20T17:47:35.075Z,5.93
2022-09-20T17:49:38.428Z,7.80
2022-09-20T17:51:41.080Z,5.30
2022-09-20T17:55:52.307Z,5.72
2022-09-20T17:57:53.873Z,5.53
2022-09-20T17:59:55.939Z,5.60
2022-09-20T18:01:57.497Z,5.25
2022-09-20T18:04:00.859Z,4.93
2022-09-20T18:06:12.119Z,5.70
2022-09-20T18:08:15.402Z,5.28
2022-09-20T18:10:16.978Z,5.57
2022-09-20T18:12:21.373Z,5.28
2022-09-20T18:14:24.434Z,5.57
2022-09-20T18:16:26.419Z,6.00
2022-09-20T18:18:28.231Z,5.68
2022-09-20T18:20:29.806Z,5.80
2022-09-20T18:22:31.506Z,6.68
2022-09-20T18:24:33.269Z,5.93
2022-09-20T18:26:35.634Z,6.50
2022-09-20T18:28:37.463Z,7.05
2022-09-20T18:30:39.925Z,7.65
2022-09-20T18:32:45.354Z,8.65
2022-09-20T18:34:51.106Z,7.55
2022-09-20T18:36:53.826Z,10.52
2022-09-20T18:38:55.971Z,9.55
2022-09-20T18:41:00.373Z,8.53
2022-09-20T18:43:04.630Z,9.30
2022-09-20T18:45:06.860Z,9.20
2022-09-20T18:47:08.690Z,8.05
2022-09-20T18:49:12.688Z,8.55
2022-09-20T18:51:15.803Z,8.50
2022-09-20T18:53:17.674Z,8.05
2022-09-20T18:55:19.557Z,8.53
2022-09-20T18:57:21.421Z,12.68
2022-09-20T18:59:25.099Z,11.50
2022-09-20T19:01:33.191Z,9.60
2022-09-20T19:03:55.610Z,9.27
2022-09-20T19:06:02.712Z,9.60
2022-09-20T19:08:19.901Z,9.60
2022-09-20T19:10:27.618Z,10.00
2022-09-20T19:12:29.134Z,9.30
2022-09-20T19:14:37.479Z,9.80
2022-09-20T19:16:42.862Z,9.38
2022-09-20T19:19:05.629Z,8.85
2022-09-20T19:21:18.157Z,8.52
2022-09-20T19:23:34.923Z,8.38
2022-09-20T19:25:45.234Z,8.65
2022-09-20T19:27:48.435Z,9.88
2022-09-20T19:31:54.265Z,11.13
2022-09-20T19:33:57.012Z,8.15
2022-09-20T19:35:59.207Z,9.90
2022-09-20T19:38:26.540Z,9.63
2022-09-20T19:40:38.694Z,9.50
2022-09-20T19:42:47.551Z,8.27
2022-09-20T19:45:14.723Z,9.35
2022-09-20T19:47:26.329Z,9.50
2022-09-20T19:49:33.650Z,8.68
2022-09-20T19:51:39.542Z,9.23
2022-09-20T19:53:41.614Z,8.98
2022-09-20T19:55:46.243Z,9.10
2022-09-20T19:57:49.767Z,8.55
2022-09-20T19:59:51.878Z,7.93
2022-09-20T20:01:54.299Z,10.05
2022-09-20T20:03:56.209Z,9.43
2022-09-20T20:05:58.149Z,9.13
2022-09-20T20:08:12.177Z,8.57
2022-09-20T20:10:18.567Z,8.43
2022-09-20T20:12:25.908Z,8.68
2022-09-20T20:14:31.181Z,9.25
2022-09-20T20:16:35.733Z,9.48
2022-09-20T20:18:40.689Z,13.15
2022-09-20T20:20:49.279Z,60.03
2022-09-20T20:23:00.909Z,10.60
2022-09-20T20:25:03.067Z,10.10
2022-09-20T20:27:04.877Z,9.73
2022-09-20T20:29:06.832Z,10.63
2022-09-20T20:31:12.525Z,10.82
2022-09-20T20:33:18.985Z,12.30
2022-09-20T20:35:23.046Z,11.38
2022-09-20T20:37:28.197Z,11.98
2022-09-20T20:39:31.979Z,11.55
2022-09-20T20:41:34.210Z,11.95
2022-09-20T20:43:46.412Z,11.48
2022-09-20T20:45:56.200Z,11.38
2022-09-20T20:47:58.831Z,11.50
2022-09-20T20:50:00.709Z,11.75
2022-09-20T20:52:06.907Z,12.70
2022-09-20T20:54:11.242Z,12.10
2022-09-20T20:56:14.410Z,12.05
2022-09-20T21:00:19.009Z,12.00
2022-09-20T21:02:22.107Z,12.10
2022-09-20T21:04:28.564Z,12.82
2022-09-20T21:06:31.912Z,13.25
2022-09-20T21:08:43.854Z,19.00
2022-09-20T21:10:48.955Z,17.95
2022-09-20T21:12:54.231Z,11.02
2022-09-20T21:15:01.925Z,11.73
2022-09-20T21:17:06.699Z,10.90
2022-09-20T21:19:10.262Z,9.70
2022-09-20T21:21:18.303Z,9.88
2022-09-20T21:23:22.487Z,9.73
2022-09-20T21:25:24.304Z,9.43
2022-09-20T21:27:30.056Z,10.68
2022-09-20T21:29:32.829Z,11.38
2022-09-20T21:33:37.995Z,10.30
2022-09-20T21:35:39.890Z,10.32
2022-09-20T21:37:44.465Z,10.52
2022-09-20T21:39:46.955Z,11.02
2022-09-20T21:41:49.043Z,10.25
2022-09-20T21:43:55.310Z,10.67
2022-09-20T21:45:58.684Z,11.70
2022-09-20T21:50:01.815Z,10.40
2022-09-20T21:52:03.738Z,10.85
2022-09-20T21:54:05.718Z,10.98
2022-09-20T21:56:09.018Z,11.03
2022-09-20T21:58:10.774Z,11.10
2022-09-20T22:00:12.698Z,11.27
2022-09-20T22:02:15.248Z,11.75
2022-09-20T22:04:17.257Z,12.38
2022-09-20T22:06:20.073Z,11.55
2022-09-20T22:08:21.603Z,12.23
2022-09-20T22:10:23.773Z,12.00
2022-09-20T22:12:25.343Z,12.38
2022-09-20T22:14:27.011Z,11.63
2022-09-20T22:16:30.531Z,11.95
2022-09-20T22:18:36.393Z,12.88
2022-09-20T22:20:37.929Z,11.82
2022-09-20T22:22:39.650Z,12.50
2022-09-20T22:24:41.417Z,11.70
2022-09-20T22:26:49.583Z,12.77
2022-09-20T22:28:58.221Z,12.93
2022-09-20T22:31:26.523Z,12.32
2022-09-20T22:33:28.359Z,12.77
2022-09-20T22:35:30.112Z,13.18
2022-09-20T22:37:31.799Z,13.48
2022-09-20T22:39:33.343Z,13.57
2022-09-20T22:41:38.819Z,13.70
2022-09-20T22:43:40.466Z,13.77
2022-09-20T22:45:45.341Z,13.88
2022-09-20T22:47:47.484Z,14.13
2022-09-20T22:49:49.380Z,13.25
2022-09-20T22:51:50.894Z,13.23
2022-09-20T22:53:52.769Z,12.15
2022-09-20T22:55:54.318Z,12.55
2022-09-20T22:57:55.920Z,13.05
2022-09-20T23:00:00.323Z,12.50
2022-09-20T23:02:02.011Z,12.88
2022-09-20T23:04:08.327Z,11.57
2022-09-20T23:06:20.863Z,11.70
2022-09-20T23:08:25.064Z,11.80
2022-09-20T23:10:26.666Z,11.57
2022-09-20T23:12:28.431Z,11.40
2022-09-20T23:14:33.108Z,11.77
2022-09-20T23:16:36.358Z,11.50
2022-09-20T23:18:38.119Z,10.93
2022-09-20T23:20:41.571Z,11.00
2022-09-20T23:22:43.136Z,12.00
2022-09-20T23:24:47.960Z,11.57
2022-09-20T23:26:52.409Z,11.57
2022-09-20T23:28:58.103Z,11.43
2022-09-20T23:31:05.034Z,11.30
2022-09-20T23:33:06.817Z,11.55
2022-09-20T23:35:12.009Z,12.88
2022-09-20T23:37:13.997Z,12.15
2022-09-20T23:39:19.332Z,12.55
2022-09-20T23:41:24.120Z,12.40
2022-09-20T23:43:32.741Z,12.15
2022-09-20T23:45:34.922Z,12.38
2022-09-20T23:47:37.126Z,11.93
2022-09-20T23:49:38.917Z,12.00
2022-09-20T23:51:40.584Z,12.25
2022-09-20T23:53:43.844Z,12.95
2022-09-20T23:55:45.608Z,11.05
2022-09-20T23:57:47.246Z,13.00
2022-09-20T23:59:49.503Z,11.32
